Time;durP1;ratioP1;P1;durP2;ratioP2;P2;SDS_P1;SDS_P2;PMS_P1;PMS_P2;Temp;Humidity;BMP_temperature;BMP_pressure;BME280_temperature;BME280_humidity;BME280_pressure;Samples;Min_cycle;Max_cycle;Signal;HPM_P1;HPM_P2
2023/09/27 00:01:09;;;;;;;4.53;4.03;;;14.90;99.90;;;;;;4838540;29;20081;-80
2023/09/27 00:03:35;;;;;;;5.07;4.57;;;14.90;99.90;;;;;;4852418;29;20053;-79
2023/09/27 00:06:00;;;;;;;4.80;4.15;;;14.80;99.90;;;;;;4861843;29;20049;-79
2023/09/27 00:08:26;;;;;;;5.72;4.50;;;14.80;99.90;;;;;;4847584;29;20081;-79
2023/09/27 00:10:52;;;;;;;4.63;4.20;;;14.80;99.90;;;;;;4852558;29;20057;-79
2023/09/27 00:13:18;;;;;;;5.55;4.97;;;14.80;99.90;;;;;;4838848;29;20088;-80
2023/09/27 00:15:43;;;;;;;4.50;4.10;;;14.80;99.90;;;;;;4837483;29;20417;-79
2023/09/27 00:18:10;;;;;;;4.63;3.97;;;14.70;99.90;;;;;;4840913;29;20127;-79
2023/09/27 00:20:35;;;;;;;;;;;14.70;99.90;;;;;;4843152;29;20148;-79
2023/09/27 00:23:01;;;;;;;4.15;3.75;;;14.70;99.90;;;;;;4861352;29;20431;-79
2023/09/27 00:25:27;;;;;;;3.90;3.50;;;14.70;99.90;;;;;;4847250;29;20493;-79
2023/09/27 00:27:52;;;;;;;4.82;3.80;;;14.70;99.90;;;;;;4850464;29;20485;-79
2023/09/27 00:30:18;;;;;;;4.30;3.90;;;14.70;99.90;;;;;;4843894;29;20046;-79
2023/09/27 00:32:45;;;;;;;4.20;3.80;;;14.70;99.90;;;;;;4839495;29;20056;-79
2023/09/27 00:35:18;;;;;;;4.03;3.63;;;14.70;99.90;;;;;;4860973;29;20064;-80
2023/09/27 00:37:48;;;;;;;4.53;3.90;;;14.70;99.90;;;;;;4856727;29;20049;-79
2023/09/27 00:40:15;;;;;;;4.30;3.60;;;14.70;99.90;;;;;;4860945;29;20038;-79
2023/09/27 00:42:40;;;;;;;4.00;3.60;;;14.70;99.90;;;;;;4861190;29;20045;-80
2023/09/27 00:45:07;;;;;;;4.18;3.78;;;14.60;99.90;;;;;;4855544;29;20136;-79
2023/09/27 00:47:34;;;;;;;4.20;3.75;;;14.60;99.90;;;;;;4854774;29;20068;-79
2023/09/27 00:50:00;;;;;;;4.60;4.20;;;14.60;99.90;;;;;;4860785;29;20083;-80
2023/09/27 00:52:26;;;;;;;4.18;3.70;;;14.60;99.90;;;;;;4861339;29;20090;-79
2023/09/27 00:54:53;;;;;;;4.32;3.92;;;14.60;99.90;;;;;;4846542;29;20045;-79
2023/09/27 00:57:19;;;;;;;4.47;3.88;;;14.60;99.90;;;;;;4861134;29;20509;-79
2023/09/27 00:59:45;;;;;;;4.70;4.20;;;14.50;99.90;;;;;;4861679;29;20182;-79
2023/09/27 01:02:12;;;;;;;4.32;3.90;;;14.50;99.90;;;;;;4857819;29;20043;-79
2023/09/27 01:04:39;;;;;;;4.18;3.78;;;14.50;99.90;;;;;;4846458;29;20108;-80
2023/09/27 01:07:07;;;;;;;5.32;3.80;;;14.50;99.90;;;;;;4843731;29;20040;-80
2023/09/27 01:09:33;;;;;;;4.88;3.90;;;14.50;99.90;;;;;;4853703;29;20409;-79
2023/09/27 01:11:59;;;;;;;4.65;4.18;;;14.50;99.90;;;;;;4833609;29;20056;-79
2023/09/27 01:14:25;;;;;;;4.45;3.92;;;14.50;99.90;;;;;;4861408;29;20045;-79
2023/09/27 01:16:51;;;;;;;3.90;3.50;;;14.40;99.90;;;;;;4861529;29;20129;-79
2023/09/27 01:19:16;;;;;;;4.18;3.78;;;14.40;99.90;;;;;;4850569;29;20076;-80
2023/09/27 01:21:42;;;;;;;4.10;3.70;;;14.40;99.90;;;;;;4845651;29;20052;-79
2023/09/27 01:24:11;;;;;;;4.43;3.70;;;14.40;99.90;;;;;;4860323;29;20147;-80
2023/09/27 01:26:37;;;;;;;4.10;3.67;;;14.40;99.90;;;;;;4861374;29;20048;-80
2023/09/27 01:29:04;;;;;;;4.47;3.80;;;14.40;99.90;;;;;;4865040;29;20041;-79
2023/09/27 01:31:30;;;;;;;6.35;4.00;;;14.40;99.90;;;;;;4845349;29;20060;-80
2023/09/27 01:33:56;;;;;;;4.07;3.45;;;14.40;99.90;;;;;;4860379;29;20409;-80
2023/09/27 01:36:22;;;;;;;4.15;3.75;;;14.40;99.90;;;;;;4854203;29;20041;-80
2023/09/27 01:38:48;;;;;;;4.10;3.70;;;14.40;99.90;;;;;;4828633;29;20037;-80
2023/09/27 01:41:14;;;;;;;5.18;4.50;;;14.40;99.90;;;;;;4837008;29;20084;-80
2023/09/27 01:43:40;;;;;;;;;;;14.30;99.90;;;;;;4856687;29;20049;-80
2023/09/27 01:46:06;;;;;;;4.43;4.03;;;14.30;99.90;;;;;;4861134;29;20024;-79
2023/09/27 01:48:32;;;;;;;5.55;4.50;;;14.30;99.90;;;;;;4860316;29;20048;-79
2023/09/27 01:50:58;;;;;;;;;;;14.30;99.90;;;;;;4845958;29;20121;-80
2023/09/27 01:53:23;;;;;;;5.22;4.72;;;14.20;99.90;;;;;;4842010;29;20423;-79
2023/09/27 01:55:49;;;;;;;5.38;4.80;;;14.20;99.90;;;;;;4842340;29;20046;-79
2023/09/27 01:58:15;;;;;;;5.90;5.10;;;14.20;99.90;;;;;;4860208;29;20041;-79
2023/09/27 02:00:41;;;;;;;5.70;4.97;;;14.10;99.90;;;;;;4857351;29;20389;-79
2023/09/27 02:03:06;;;;;;;4.88;4.40;;;14.10;99.90;;;;;;4844316;29;20049;-80
2023/09/27 02:05:32;;;;;;;4.90;4.30;;;14.10;99.90;;;;;;4850891;29;20071;-79
2023/09/27 02:07:58;;;;;;;4.97;4.47;;;14.10;99.90;;;;;;4845191;29;20041;-79
2023/09/27 02:10:24;;;;;;;4.78;4.35;;;14.10;99.90;;;;;;4843747;29;20080;-79
2023/09/27 02:12:50;;;;;;;5.45;4.82;;;14.00;99.90;;;;;;4857290;29;20745;-79
2023/09/27 02:15:16;;;;;;;5.03;4.53;;;14.00;99.90;;;;;;4838441;29;20045;-79
2023/09/27 02:17:43;;;;;;;5.63;5.03;;;14.00;99.90;;;;;;4830820;29;20156;-79
2023/09/27 02:20:11;;;;;;;4.85;4.28;;;13.90;99.90;;;;;;4855451;29;20413;-79
2023/09/27 02:22:38;;;;;;;5.70;4.53;;;13.90;99.90;;;;;;4850997;29;20926;-80
2023/09/27 02:25:06;;;;;;;4.60;4.20;;;13.90;99.90;;;;;;4848000;29;20092;-79
2023/09/27 02:27:32;;;;;;;5.03;4.53;;;13.90;99.90;;;;;;4845707;29;20100;-79
2023/09/27 02:29:58;;;;;;;5.60;4.93;;;13.90;99.90;;;;;;4856385;29;20182;-79
2023/09/27 02:32:24;;;;;;;5.57;5.03;;;13.90;99.90;;;;;;4851117;29;20096;-79
2023/09/27 02:34:51;;;;;;;5.90;5.30;;;13.80;99.90;;;;;;4839548;29;20046;-79
2023/09/27 02:37:17;;;;;;;5.55;4.90;;;13.80;99.90;;;;;;4828576;29;20054;-79
2023/09/27 02:39:43;;;;;;;5.75;4.72;;;13.80;99.90;;;;;;4852688;29;20045;-79
2023/09/27 02:42:12;;;;;;;;;;;13.80;99.90;;;;;;4835053;29;20059;-79
2023/09/27 02:44:38;;;;;;;5.47;4.70;;;13.80;99.90;;;;;;4855362;29;19919;-79
2023/09/27 02:47:06;;;;;;;6.25;4.97;;;13.80;99.90;;;;;;4829811;29;20080;-79
2023/09/27 02:49:35;;;;;;;4.75;4.35;;;13.80;99.90;;;;;;4859614;29;20056;-79
2023/09/27 02:52:01;;;;;;;4.90;4.40;;;13.80;99.90;;;;;;4862991;29;20049;-79
2023/09/27 02:54:27;;;;;;;5.07;4.57;;;13.70;99.90;;;;;;4859848;29;20085;-80
2023/09/27 02:56:53;;;;;;;5.38;4.05;;;13.70;99.90;;;;;;4864212;29;20144;-80
2023/09/27 02:59:19;;;;;;;4.55;4.10;;;13.70;99.90;;;;;;4857958;29;20490;-79
2023/09/27 03:01:44;;;;;;;5.30;4.20;;;13.70;99.90;;;;;;4848265;29;20493;-79
2023/09/27 03:04:11;;;;;;;4.93;4.43;;;13.70;99.90;;;;;;4863297;29;20049;-79
2023/09/27 03:06:41;;;;;;;4.85;4.35;;;13.70;99.90;;;;;;4848123;29;20156;-79
2023/09/27 03:09:11;;;;;;;4.72;4.22;;;13.70;99.90;;;;;;4845760;29;20537;-79
2023/09/27 03:11:38;;;;;;;4.85;4.22;;;13.60;99.90;;;;;;4862437;29;20059;-79
2023/09/27 03:14:04;;;;;;;4.63;4.20;;;13.70;99.90;;;;;;4848002;29;20041;-79
2023/09/27 03:16:29;;;;;;;4.63;4.22;;;13.70;99.90;;;;;;4848099;29;20052;-79
2023/09/27 03:18:58;;;;;;;4.05;3.65;;;13.70;99.90;;;;;;4846760;29;20087;-79
2023/09/27 03:21:24;;;;;;;4.78;4.25;;;13.70;99.90;;;;;;4857939;29;20077;-79
2023/09/27 03:23:53;;;;;;;;;;;13.70;99.90;;;;;;4848249;29;20129;-79
2023/09/27 03:26:20;;;;;;;6.22;5.07;;;13.60;99.90;;;;;;4856860;29;19920;-80
2023/09/27 03:28:45;;;;;;;5.07;4.57;;;13.60;99.90;;;;;;4851849;29;20052;-79
2023/09/27 03:31:11;;;;;;;4.80;4.20;;;13.60;99.90;;;;;;4864780;29;20400;-79
2023/09/27 03:33:39;;;;;;;5.38;4.40;;;13.60;99.90;;;;;;4847566;29;20060;-79
2023/09/27 03:36:07;;;;;;;5.30;4.80;;;13.60;99.90;;;;;;4847009;29;20485;-79
2023/09/27 03:38:33;;;;;;;4.97;4.40;;;13.60;99.90;;;;;;4847821;29;20053;-79
2023/09/27 03:40:58;;;;;;;5.35;4.30;;;13.60;99.90;;;;;;4849821;29;20042;-79
2023/09/27 03:43:24;;;;;;;4.70;4.15;;;13.60;99.90;;;;;;4848468;29;20079;-80
2023/09/27 03:45:51;;;;;;;4.93;4.28;;;13.60;99.90;;;;;;4847929;29;20065;-79
2023/09/27 03:48:19;;;;;;;5.00;4.50;;;13.60;99.90;;;;;;4867148;29;20056;-79
2023/09/27 03:50:45;;;;;;;4.78;4.10;;;13.60;99.90;;;;;;4846152;29;20045;-79
2023/09/27 03:53:11;;;;;;;4.50;4.07;;;13.60;99.90;;;;;;4863035;29;20033;-79
2023/09/27 03:55:36;;;;;;;5.90;4.63;;;13.60;99.90;;;;;;4855030;29;20863;-79
2023/09/27 03:58:03;;;;;;;5.05;4.50;;;13.60;99.90;;;;;;4860662;29;20041;-79
2023/09/27 04:00:29;;;;;;;5.72;4.70;;;13.60;99.90;;;;;;4857366;29;20089;-80
2023/09/27 04:02:55;;;;;;;5.57;4.97;;;13.50;99.90;;;;;;4833833;29;20053;-80
2023/09/27 04:05:26;;;;;;;6.18;4.97;;;13.50;99.90;;;;;;4831080;29;20052;-80
2023/09/27 04:07:52;;;;;;;5.03;4.53;;;13.50;99.90;;;;;;4847655;29;20049;-79
2023/09/27 04:10:19;;;;;;;;;;;13.50;99.90;;;;;;4856398;29;20044;-79
2023/09/27 04:12:45;;;;;;;5.47;4.97;;;13.50;99.90;;;;;;4850924;29;19928;-79
2023/09/27 04:15:11;;;;;;;5.82;5.22;;;13.50;99.90;;;;;;4837912;29;20534;-79
2023/09/27 04:17:38;;;;;;;5.25;4.75;;;13.50;99.90;;;;;;4842410;29;20042;-79
2023/09/27 04:20:13;;;;;;;4.43;4.03;;;13.40;99.90;;;;;;4855488;29;20497;-79
2023/09/27 04:22:41;;;;;;;5.10;4.60;;;13.50;99.90;;;;;;4861226;29;20055;-80
2023/09/27 04:25:07;;;;;;;4.90;4.40;;;13.40;99.90;;;;;;4851698;29;20657;-78
2023/09/27 04:27:33;;;;;;;5.22;4.72;;;13.40;99.90;;;;;;4854546;29;20049;-80
2023/09/27 04:29:59;;;;;;;5.07;4.43;;;13.40;99.90;;;;;;4837264;29;20053;-79
2023/09/27 04:32:25;;;;;;;4.70;4.30;;;13.40;99.90;;;;;;4854529;29;20318;-80
2023/09/27 04:34:51;;;;;;;4.97;4.47;;;13.40;99.90;;;;;;4845492;29;20041;-80
2023/09/27 04:37:17;;;;;;;4.35;3.95;;;13.40;99.90;;;;;;4837376;29;20056;-80
2023/09/27 04:39:43;;;;;;;5.05;4.55;;;13.40;99.90;;;;;;4868106;29;20063;-79
2023/09/27 04:42:08;;;;;;;4.97;4.43;;;13.40;99.90;;;;;;4875409;29;20135;-80
2023/09/27 04:44:34;;;;;;;5.53;4.93;;;13.30;99.90;;;;;;4852022;29;20045;-80
2023/09/27 04:47:00;;;;;;;5.07;4.57;;;13.30;99.90;;;;;;4842160;29;20060;-80
2023/09/27 04:49:27;;;;;;;4.88;4.28;;;13.30;99.90;;;;;;4862102;29;20049;-80
2023/09/27 04:51:52;;;;;;;4.97;4.47;;;13.30;99.90;;;;;;4855152;29;20101;-79
2023/09/27 04:54:18;;;;;;;5.47;4.82;;;13.30;99.90;;;;;;4841417;29;20078;-80
2023/09/27 04:56:43;;;;;;;4.90;4.40;;;13.30;99.90;;;;;;4841764;29;20078;-79
2023/09/27 04:59:09;;;;;;;5.30;4.80;;;13.30;99.90;;;;;;4837131;29;20056;-79
2023/09/27 05:01:35;;;;;;;5.20;4.70;;;13.20;99.90;;;;;;4834554;29;20052;-80
2023/09/27 05:04:01;;;;;;;5.95;5.20;;;13.20;99.90;;;;;;4838095;29;20490;-79
2023/09/27 05:06:26;;;;;;;5.57;5.07;;;13.20;99.90;;;;;;4841858;29;20052;-79
2023/09/27 05:08:52;;;;;;;5.22;4.72;;;13.10;99.90;;;;;;4848294;29;20173;-78
2023/09/27 05:11:18;;;;;;;6.15;4.82;;;13.10;99.90;;;;;;4850605;29;20053;-77
2023/09/27 05:13:46;;;;;;;5.05;4.55;;;13.10;99.90;;;;;;4864203;29;20038;-79
2023/09/27 05:16:12;;;;;;;5.30;4.80;;;13.10;99.90;;;;;;4845026;29;20048;-79
2023/09/27 05:18:38;;;;;;;;;;;13.00;99.90;;;;;;4845962;29;20056;-79
2023/09/27 05:21:05;;;;;;;6.05;5.05;;;13.00;99.90;;;;;;4849127;29;20288;-80
2023/09/27 05:23:31;;;;;;;5.18;4.68;;;13.00;99.90;;;;;;4833181;29;20053;-79
2023/09/27 05:25:57;;;;;;;4.60;4.20;;;13.00;99.90;;;;;;4842554;29;20061;-79
2023/09/27 05:28:23;;;;;;;5.90;4.88;;;13.00;99.90;;;;;;4804700;29;20037;-79
2023/09/27 05:30:49;;;;;;;5.72;4.80;;;13.00;99.90;;;;;;4823949;29;20503;-79
2023/09/27 05:33:16;;;;;;;4.97;4.47;;;13.00;99.90;;;;;;4862808;29;20509;-79
2023/09/27 05:35:42;;;;;;;5.53;5.03;;;13.00;99.90;;;;;;4857159;29;20041;-80
2023/09/27 05:38:07;;;;;;;5.25;4.75;;;13.00;99.90;;;;;;4831660;29;20052;-79
2023/09/27 05:40:33;;;;;;;5.40;4.82;;;13.00;99.90;;;;;;4862927;29;20056;-79
2023/09/27 05:43:02;;;;;;;5.90;5.30;;;13.00;99.90;;;;;;4861677;29;20053;-79
2023/09/27 05:45:28;;;;;;;5.40;4.90;;;13.00;99.90;;;;;;4873771;29;20078;-79
2023/09/27 05:47:54;;;;;;;5.75;5.00;;;13.00;99.90;;;;;;4879067;29;20066;-80
2023/09/27 05:50:20;;;;;;;5.25;4.75;;;13.00;99.90;;;;;;4857326;29;20536;-79
2023/09/27 05:52:46;;;;;;;5.70;5.05;;;13.00;99.90;;;;;;4824816;29;20033;-79
2023/09/27 05:55:13;;;;;;;5.15;4.63;;;12.90;99.90;;;;;;4834417;29;20045;-80
2023/09/27 05:57:39;;;;;;;5.53;4.82;;;13.00;99.90;;;;;;4838966;29;20054;-81
2023/09/27 06:00:14;;;;;;;5.40;4.90;;;13.00;99.90;;;;;;4862583;29;20060;-79
2023/09/27 06:02:40;;;;;;;5.78;5.10;;;12.90;99.90;;;;;;4871376;29;20101;-80
2023/09/27 06:05:06;;;;;;;5.40;4.80;;;13.00;99.90;;;;;;4852453;29;20084;-79
2023/09/27 06:07:33;;;;;;;5.65;5.03;;;13.00;99.90;;;;;;4838361;29;20133;-79
2023/09/27 06:09:59;;;;;;;5.20;4.70;;;13.00;99.90;;;;;;4846034;29;20123;-80
2023/09/27 06:12:25;;;;;;;5.50;4.90;;;13.10;99.90;;;;;;4838068;29;20049;-81
2023/09/27 06:14:51;;;;;;;4.93;4.43;;;13.10;99.90;;;;;;4854874;29;20056;-80
2023/09/27 06:17:17;;;;;;;4.68;4.07;;;13.10;99.90;;;;;;4839142;29;20045;-80
2023/09/27 06:19:43;;;;;;;5.00;4.50;;;13.30;99.90;;;;;;4855116;29;20042;-80
2023/09/27 06:22:13;;;;;;;5.10;4.60;;;13.20;99.90;;;;;;4852859;29;20124;-80
2023/09/27 06:24:40;;;;;;;5.28;4.78;;;13.30;99.90;;;;;;4834896;29;20053;-79
2023/09/27 06:27:06;;;;;;;4.88;4.38;;;13.30;99.90;;;;;;4874876;29;20185;-79
2023/09/27 06:29:31;;;;;;;4.90;4.40;;;13.30;99.90;;;;;;4848791;29;20127;-79
2023/09/27 06:31:57;;;;;;;4.53;4.10;;;13.40;99.90;;;;;;4852126;29;20047;-79
2023/09/27 06:34:23;;;;;;;5.80;4.45;;;13.40;99.90;;;;;;4840521;29;20174;-78
2023/09/27 06:36:49;;;;;;;4.65;4.25;;;13.50;99.90;;;;;;4842169;29;20049;-78
2023/09/27 06:39:16;;;;;;;4.97;4.53;;;13.50;99.90;;;;;;4843563;29;20058;-78
2023/09/27 06:41:44;;;;;;;5.18;4.47;;;13.60;99.90;;;;;;4848707;29;20049;-78
2023/09/27 06:44:12;;;;;;;4.60;4.20;;;13.60;99.90;;;;;;4836413;29;20063;-78
2023/09/27 06:46:38;;;;;;;4.85;4.32;;;13.70;99.90;;;;;;4845057;29;20061;-78
2023/09/27 06:49:04;;;;;;;5.00;4.20;;;13.70;99.90;;;;;;4847074;29;20053;-79
2023/09/27 06:51:31;;;;;;;5.07;4.10;;;13.80;99.90;;;;;;4849149;29;20064;-78
2023/09/27 06:53:57;;;;;;;4.68;4.18;;;13.90;99.90;;;;;;4864732;29;20097;-79
2023/09/27 06:56:23;;;;;;;4.55;4.13;;;14.00;99.90;;;;;;4835733;29;20050;-79
2023/09/27 06:58:51;;;;;;;4.60;4.15;;;14.10;99.90;;;;;;4849664;29;20051;-79
2023/09/27 07:01:18;;;;;;;5.20;4.45;;;14.20;99.90;;;;;;4840264;29;20053;-79
2023/09/27 07:03:44;;;;;;;4.50;4.10;;;14.30;99.90;;;;;;4841938;29;20048;-79
2023/09/27 07:06:10;;;;;;;4.85;4.45;;;14.40;99.90;;;;;;4857642;29;20093;-80
2023/09/27 07:08:37;;;;;;;4.45;4.05;;;14.60;99.90;;;;;;4858728;29;20044;-80
2023/09/27 07:11:08;;;;;;;5.03;4.53;;;14.70;99.90;;;;;;4832835;29;20650;-80
2023/09/27 07:13:34;;;;;;;5.50;5.00;;;14.80;99.90;;;;;;4837957;29;20519;-80
2023/09/27 07:16:03;;;;;;;5.45;4.95;;;14.80;99.90;;;;;;4837837;29;20041;-79
2023/09/27 07:18:29;;;;;;;5.50;5.00;;;15.00;99.90;;;;;;4842644;29;20033;-80
2023/09/27 07:20:54;;;;;;;6.00;5.40;;;15.10;99.90;;;;;;4856490;29;20460;-80
2023/09/27 07:23:21;;;;;;;5.97;5.38;;;15.20;99.90;;;;;;4836764;29;20481;-79
2023/09/27 07:25:47;;;;;;;5.35;4.80;;;15.40;99.90;;;;;;4845552;29;20143;-80
2023/09/27 07:28:14;;;;;;;6.28;5.68;;;15.50;99.90;;;;;;4852299;29;20045;-79
2023/09/27 07:30:39;;;;;;;6.18;5.57;;;15.70;99.90;;;;;;4836002;29;20071;-79
2023/09/27 07:33:11;;;;;;;6.30;5.70;;;15.80;99.90;;;;;;4850512;29;20077;-80
2023/09/27 07:35:42;;;;;;;6.50;5.90;;;15.80;99.90;;;;;;4858294;29;20462;-80
2023/09/27 07:38:11;;;;;;;7.10;6.40;;;15.80;99.90;;;;;;4848853;29;20751;-80
2023/09/27 07:40:37;;;;;;;5.82;5.32;;;15.80;99.90;;;;;;4851793;29;20040;-79
2023/09/27 07:43:03;;;;;;;;;;;15.80;99.90;;;;;;4856244;29;20141;-79
2023/09/27 07:45:32;;;;;;;6.35;5.75;;;15.80;99.90;;;;;;4858889;29;20362;-80
2023/09/27 07:47:58;;;;;;;5.88;5.28;;;15.90;99.90;;;;;;4862242;29;20049;-80
2023/09/27 07:50:31;;;;;;;6.35;5.75;;;16.00;99.90;;;;;;4847906;29;20452;-80
2023/09/27 07:53:03;;;;;;;6.25;5.65;;;16.00;99.90;;;;;;4863625;29;20051;-80
2023/09/27 07:55:32;;;;;;;6.22;5.63;;;16.10;99.90;;;;;;4856490;29;20149;-79
2023/09/27 07:57:58;;;;;;;6.20;5.60;;;16.30;99.90;;;;;;4842210;29;20588;-79
2023/09/27 08:00:30;;;;;;;6.57;5.97;;;16.40;99.90;;;;;;4853902;29;20041;-79
2023/09/27 08:02:57;;;;;;;7.13;6.43;;;16.60;99.90;;;;;;4842100;29;20414;-79
2023/09/27 08:05:24;;;;;;;6.80;6.10;;;16.70;99.90;;;;;;4861193;29;20413;-80
2023/09/27 08:07:51;;;;;;;6.57;5.97;;;16.80;99.90;;;;;;4856881;29;20528;-81
2023/09/27 08:10:18;;;;;;;6.32;5.72;;;17.00;99.90;;;;;;4857153;29;20056;-80
2023/09/27 08:12:44;;;;;;;6.10;5.50;;;17.20;99.90;;;;;;4864800;29;20060;-81
2023/09/27 08:15:12;;;;;;;8.98;6.90;;;17.40;99.90;;;;;;4846386;29;20037;-81
2023/09/27 08:17:38;;;;;;;6.38;5.78;;;17.40;99.90;;;;;;4842145;29;20049;-81
2023/09/27 08:20:07;;;;;;;6.35;5.75;;;17.60;99.90;;;;;;4844340;29;20041;-81
2023/09/27 08:22:34;;;;;;;7.35;5.90;;;17.70;99.90;;;;;;4857085;29;20053;-81
2023/09/27 08:25:01;;;;;;;5.40;4.90;;;17.90;99.90;;;;;;4859575;29;20044;-82
2023/09/27 08:27:26;;;;;;;6.20;5.60;;;18.00;99.90;;;;;;4863473;29;20049;-82
2023/09/27 08:29:52;;;;;;;;;;;18.10;99.90;;;;;;4844513;29;20104;-81
2023/09/27 08:32:18;;;;;;;6.50;5.82;;;18.10;99.90;;;;;;4853229;29;19996;-81
2023/09/27 08:34:45;;;;;;;;;;;18.20;99.90;;;;;;4849055;29;20052;-79
2023/09/27 08:37:11;;;;;;;7.28;6.28;;;18.20;99.90;;;;;;4854274;29;19919;-80
2023/09/27 08:39:38;;;;;;;;;;;18.20;99.90;;;;;;4855166;29;20121;-81
2023/09/27 08:42:04;;;;;;;6.82;6.13;;;18.30;99.90;;;;;;4856999;29;19920;-81
2023/09/27 08:44:34;;;;;;;5.90;5.10;;;18.40;99.90;;;;;;4841335;29;20196;-81
2023/09/27 08:47:00;;;;;;;6.00;5.25;;;18.50;99.90;;;;;;4841871;29;20501;-81
2023/09/27 08:49:26;;;;;;;5.78;5.18;;;18.60;99.90;;;;;;4841750;29;20096;-81
2023/09/27 08:51:52;;;;;;;;;;;18.70;99.90;;;;;;4845243;29;20458;-82
2023/09/27 08:54:21;;;;;;;5.25;4.65;;;18.70;99.90;;;;;;4853412;29;19928;-81
2023/09/27 08:56:50;;;;;;;5.88;5.00;;;18.80;99.90;;;;;;4861634;29;20041;-81
2023/09/27 08:59:18;;;;;;;6.05;5.20;;;18.80;99.90;;;;;;4862522;29;20549;-82
2023/09/27 09:01:44;;;;;;;5.60;5.10;;;18.90;99.90;;;;;;4837648;29;20429;-79
2023/09/27 09:04:13;;;;;;;5.63;4.60;;;19.00;99.90;;;;;;4853665;29;20141;-80
2023/09/27 09:06:40;;;;;;;5.25;4.20;;;19.10;99.90;;;;;;4859069;29;20509;-80
2023/09/27 09:09:10;;;;;;;5.38;4.60;;;19.10;99.90;;;;;;4856406;29;20056;-80
2023/09/27 09:11:47;;;;;;;5.80;4.93;;;19.10;99.90;;;;;;4843478;29;20045;-80
2023/09/27 09:14:17;;;;;;;4.85;4.40;;;19.10;99.90;;;;;;4872591;29;20080;-80
2023/09/27 09:16:51;;;;;;;3.95;3.60;;;19.20;99.90;;;;;;4875372;29;20512;-80
2023/09/27 09:19:24;;;;;;;4.10;3.35;;;19.30;99.90;;;;;;4860953;29;20082;-80
2023/09/27 09:22:11;;;;;;;4.82;3.80;;;19.50;99.90;;;;;;4835583;29;20108;-80
2023/09/27 09:24:45;;;;;;;4.47;4.00;;;19.60;99.90;;;;;;4839175;29;20710;-80
2023/09/27 09:27:16;;;;;;;6.85;4.60;;;19.60;99.90;;;;;;4844669;29;20052;-80
2023/09/27 09:29:46;;;;;;;4.30;3.90;;;19.60;99.90;;;;;;4849244;29;20053;-82
2023/09/27 09:32:21;;;;;;;4.25;3.60;;;19.70;99.90;;;;;;4841707;29;20053;-82
2023/09/27 09:34:51;;;;;;;4.60;4.05;;;19.70;99.90;;;;;;4853616;29;20076;-81
2023/09/27 09:37:25;;;;;;;4.88;3.53;;;19.70;99.90;;;;;;4834813;29;20081;-82
2023/09/27 09:39:52;;;;;;;4.80;3.83;;;19.80;99.90;;;;;;4848691;29;20122;-81
2023/09/27 09:42:32;;;;;;;4.30;3.72;;;19.90;99.90;;;;;;4832786;29;20572;-82
2023/09/27 09:45:06;;;;;;;4.07;3.35;;;20.00;99.90;;;;;;4855492;29;20046;-81
2023/09/27 09:47:37;;;;;;;4.03;3.10;;;20.00;99.90;;;;;;4833168;29;20053;-82
2023/09/27 09:50:07;;;;;;;4.15;3.47;;;20.10;99.90;;;;;;4850638;29;20104;-82
2023/09/27 09:52:36;;;;;;;4.03;3.45;;;20.10;99.90;;;;;;4838783;29;20053;-82
2023/09/27 09:55:07;;;;;;;4.18;3.08;;;20.20;99.90;;;;;;4848269;29;20087;-82
2023/09/27 09:57:36;;;;;;;3.75;3.03;;;20.30;99.90;;;;;;4856016;29;20041;-82
2023/09/27 10:00:25;;;;;;;3.92;2.70;;;20.40;99.90;;;;;;4849100;29;20533;-82
2023/09/27 10:03:00;;;;;;;4.40;3.25;;;20.40;99.90;;;;;;4847163;29;20045;-82
2023/09/27 10:05:28;;;;;;;4.53;3.28;;;20.40;99.90;;;;;;4850405;29;20064;-82
2023/09/27 10:07:54;;;;;;;3.00;2.70;;;20.50;99.90;;;;;;4846981;29;20048;-81
2023/09/27 10:10:22;;;;;;;3.20;2.50;;;20.50;99.90;;;;;;4835123;29;20438;-82
2023/09/27 10:12:50;;;;;;;3.60;2.80;;;20.60;99.90;;;;;;4835048;29;20045;-82
2023/09/27 10:15:20;;;;;;;4.20;2.60;;;20.60;99.90;;;;;;4835150;29;20053;-82
2023/09/27 10:17:46;;;;;;;3.38;2.42;;;20.60;99.90;;;;;;4845690;29;20045;-82
2023/09/27 10:20:22;;;;;;;3.78;2.45;;;20.60;99.90;;;;;;4851500;29;20053;-82
2023/09/27 10:22:49;;;;;;;3.78;2.30;;;20.80;99.90;;;;;;4849481;29;20050;-83
2023/09/27 10:25:24;;;;;;;2.50;1.80;;;20.90;99.90;;;;;;4857368;29;20052;-82
2023/09/27 10:27:58;;;;;;;2.67;2.10;;;21.10;99.90;;;;;;4853172;29;20053;-82
2023/09/27 10:30:24;;;;;;;3.55;2.38;;;21.10;99.90;;;;;;4842274;29;20508;-83
2023/09/27 10:33:16;;;;;;;3.08;1.98;;;21.00;99.90;;;;;;4839465;29;20437;-82
2023/09/27 10:36:00;;;;;;;2.92;2.00;;;21.00;99.90;;;;;;4846125;29;20045;-82
2023/09/27 10:38:49;;;;;;;2.45;1.50;;;20.90;99.90;;;;;;4851032;29;20045;-82
2023/09/27 10:41:34;;;;;;;2.30;1.70;;;20.80;99.90;;;;;;4846118;29;20645;-82
2023/09/27 10:44:01;;;;;;;2.75;1.60;;;20.70;99.90;;;;;;4837481;29;20073;-82
2023/09/27 10:46:39;;;;;;;2.38;1.58;;;20.60;99.90;;;;;;4847054;29;20061;-82
2023/09/27 10:49:04;;;;;;;2.75;1.73;;;20.60;99.90;;;;;;4853476;29;20037;-82
2023/09/27 10:51:30;;;;;;;2.47;1.65;;;20.60;99.90;;;;;;4852995;29;20413;-82
2023/09/27 10:53:56;;;;;;;2.58;1.70;;;20.70;99.90;;;;;;4855185;29;20060;-82
2023/09/27 10:56:22;;;;;;;2.10;1.50;;;20.70;99.90;;;;;;4836982;29;20037;-82
2023/09/27 10:58:51;;;;;;;2.00;1.30;;;20.70;99.90;;;;;;4840112;29;20041;-82
2023/09/27 11:01:22;;;;;;;2.05;1.42;;;20.60;99.90;;;;;;4831297;29;20084;-82
2023/09/27 11:03:56;;;;;;;1.60;1.20;;;20.60;99.90;;;;;;4854778;29;20915;-82
2023/09/27 11:06:22;;;;;;;1.67;1.13;;;20.60;99.90;;;;;;4838065;29;20159;-82
2023/09/27 11:08:48;;;;;;;1.67;1.15;;;20.60;99.90;;;;;;4836727;29;20127;-82
2023/09/27 11:11:14;;;;;;;1.60;1.10;;;20.70;99.90;;;;;;4836419;29;20104;-82
2023/09/27 11:13:43;;;;;;;1.42;1.05;;;20.70;99.90;;;;;;4837519;29;20505;-83
2023/09/27 11:16:11;;;;;;;1.50;1.00;;;20.70;99.90;;;;;;4850389;29;20423;-82
2023/09/27 11:18:44;;;;;;;1.30;1.00;;;20.70;99.90;;;;;;4854697;29;20052;-82
2023/09/27 11:21:14;;;;;;;1.05;0.80;;;20.80;99.90;;;;;;4859583;29;20045;-82
2023/09/27 11:23:59;;;;;;;1.70;0.88;;;20.80;99.90;;;;;;4864184;29;20037;-82
2023/09/27 11:26:27;;;;;;;1.13;0.90;;;20.80;99.90;;;;;;4846455;29;20068;-82
2023/09/27 11:28:57;;;;;;;1.33;0.90;;;20.80;99.90;;;;;;4860085;29;20047;-82
2023/09/27 11:31:24;;;;;;;1.50;1.00;;;20.90;99.90;;;;;;4871492;29;20512;-82
2023/09/27 11:33:50;;;;;;;1.27;1.00;;;20.90;99.90;;;;;;4863162;29;20045;-82
2023/09/27 11:36:16;;;;;;;2.15;1.05;;;20.90;99.90;;;;;;4837917;29;20077;-81
2023/09/27 11:38:51;;;;;;;2.38;1.20;;;20.90;99.90;;;;;;4849675;29;20080;-82
2023/09/27 11:41:19;;;;;;;1.90;1.10;;;20.90;99.90;;;;;;4848858;29;20033;-81
2023/09/27 11:43:45;;;;;;;1.27;0.90;;;21.00;99.90;;;;;;4842813;29;20081;-81
2023/09/27 11:46:12;;;;;;;1.23;0.90;;;21.00;99.90;;;;;;4857157;29;20100;-82
2023/09/27 11:48:39;;;;;;;1.15;0.90;;;21.10;99.90;;;;;;4871535;29;21896;-82
2023/09/27 11:51:05;;;;;;;1.17;0.93;;;21.10;99.90;;;;;;4854826;29;20501;-82
2023/09/27 11:53:30;;;;;;;1.13;0.77;;;21.20;99.90;;;;;;4861196;29;20053;-82
2023/09/27 11:55:59;;;;;;;1.00;0.70;;;21.20;99.90;;;;;;4859589;29;20482;-82
2023/09/27 11:58:26;;;;;;;1.25;0.85;;;21.30;99.90;;;;;;4863437;29;20045;-83
2023/09/27 12:00:52;;;;;;;1.05;0.77;;;21.30;99.90;;;;;;4854948;29;20055;-82
2023/09/27 12:03:17;;;;;;;1.65;0.90;;;21.40;99.90;;;;;;4852753;29;20058;-82
2023/09/27 12:05:44;;;;;;;1.55;1.00;;;21.40;99.90;;;;;;4855282;29;20056;-82
2023/09/27 12:08:10;;;;;;;1.67;1.05;;;21.50;99.90;;;;;;4845352;29;20504;-82
2023/09/27 12:10:36;;;;;;;1.73;1.20;;;22.00;99.90;;;;;;4847721;29;20052;-82
2023/09/27 12:13:02;;;;;;;1.60;1.10;;;22.30;99.90;;;;;;4837618;29;20041;-81
2023/09/27 12:15:28;;;;;;;3.03;1.65;;;22.30;99.90;;;;;;4840533;29;20960;-81
2023/09/27 12:17:54;;;;;;;2.35;1.27;;;22.30;99.90;;;;;;4833060;29;20050;-81
2023/09/27 12:20:19;;;;;;;1.83;1.20;;;22.50;99.90;;;;;;4842340;29;20080;-81
2023/09/27 12:22:45;;;;;;;1.90;1.20;;;22.90;99.90;;;;;;4852969;29;20548;-81
2023/09/27 12:25:11;;;;;;;1.00;0.90;;;23.20;99.90;;;;;;4843118;29;20076;-82
2023/09/27 12:27:43;;;;;;;1.52;1.13;;;23.40;99.90;;;;;;4846878;29;20059;-82
2023/09/27 12:30:09;;;;;;;1.23;0.90;;;23.60;99.90;;;;;;4831086;29;20347;-82
2023/09/27 12:32:35;;;;;;;1.52;1.20;;;23.90;99.90;;;;;;4841896;29;20051;-82
2023/09/27 12:35:01;;;;;;;2.35;1.30;;;24.10;99.90;;;;;;4849344;29;20124;-85
2023/09/27 12:37:26;;;;;;;2.28;1.45;;;23.90;99.90;;;;;;4833203;29;20458;-85
2023/09/27 12:39:53;;;;;;;1.92;1.42;;;23.90;99.90;;;;;;4830116;29;20041;-85
2023/09/27 12:42:19;;;;;;;1.70;1.40;;;23.90;99.90;;;;;;4838863;29;20378;-85
2023/09/27 12:44:45;;;;;;;1.67;1.40;;;24.10;99.90;;;;;;4856655;29;20056;-84
2023/09/27 12:47:11;;;;;;;1.85;1.40;;;24.10;99.90;;;;;;4850096;29;20128;-84
2023/09/27 12:49:40;;;;;;;1.75;1.25;;;24.30;99.90;;;;;;4848161;29;20462;-84
2023/09/27 12:52:06;;;;;;;1.90;1.42;;;24.50;99.90;;;;;;4854230;29;20053;-82